Time;durP1;ratioP1;P1;durP2;ratioP2;P2;SDS_P1;SDS_P2;PMS_P1;PMS_P2;Temp;Humidity;BMP_temperature;BMP_pressure;BME280_temperature;BME280_humidity;BME280_pressure;Samples;Min_cycle;Max_cycle;Signal;HPM_P1;HPM_P2
2023/05/13 00:01:47;;;;;;;8.70;5.22;;;;;;;14.87;95.21;101911.72;5052397;28;20104;-65
2023/05/13 00:04:16;;;;;;;9.05;5.40;;;;;;;14.90;95.67;101908.44;5061590;28;20052;-67
2023/05/13 00:06:44;;;;;;;9.95;5.32;;;;;;;14.91;94.56;101912.00;5044291;28;20044;-65
2023/05/13 00:09:12;;;;;;;7.47;4.65;;;;;;;14.94;94.62;101908.72;5056330;28;20068;-66
2023/05/13 00:11:40;;;;;;;9.65;5.55;;;;;;;14.93;94.42;101906.25;5057038;28;20071;-67
2023/05/13 00:14:09;;;;;;;10.82;5.20;;;;;;;14.87;95.11;101908.97;5053018;28;20041;-66
2023/05/13 00:16:37;;;;;;;9.70;5.60;;;;;;;14.87;95.44;101908.97;5043832;28;20046;-66
2023/05/13 00:19:05;;;;;;;8.55;5.75;;;;;;;14.83;95.35;101907.84;5049152;28;20049;-66
2023/05/13 00:21:32;;;;;;;9.23;5.85;;;;;;;14.82;95.60;101906.22;5047961;28;20048;-66
2023/05/13 00:24:00;;;;;;;10.00;5.40;;;;;;;14.83;95.16;101909.78;5045041;28;20051;-65
2023/05/13 00:26:28;;;;;;;8.60;5.00;;;;;;;14.83;95.31;101907.84;5073757;28;20055;-65
2023/05/13 00:28:55;;;;;;;9.75;5.03;;;;;;;14.84;94.59;101903.19;5072398;28;20102;-66
2023/05/13 00:31:23;;;;;;;10.98;5.35;;;;;;;14.84;94.54;101903.19;5058595;28;20048;-65
2023/05/13 00:33:51;;;;;;;8.75;5.10;;;;;;;14.86;93.79;101903.75;5052552;28;20148;-66
2023/05/13 00:36:19;;;;;;;9.43;5.25;;;;;;;14.86;93.67;101911.97;5057979;28;20045;-66
2023/05/13 00:38:46;;;;;;;10.18;4.80;;;;;;;14.86;93.40;101910.09;5072527;28;20413;-66
2023/05/13 00:41:14;;;;;;;9.25;4.93;;;;;;;14.85;93.27;101911.16;5073345;28;20072;-65
2023/05/13 00:43:41;;;;;;;9.50;5.53;;;;;;;14.83;93.10;101913.34;5059561;28;20128;-65
2023/05/13 00:46:09;;;;;;;8.07;5.18;;;;;;;14.80;92.94;101908.41;5052849;28;20049;-66
2023/05/13 00:48:38;;;;;;;9.05;4.78;;;;;;;14.74;92.53;101914.13;5037080;28;20056;-66
2023/05/13 00:51:06;;;;;;;7.72;4.82;;;;;;;14.68;92.73;101911.38;5052684;28;20102;-66
2023/05/13 00:53:33;;;;;;;8.40;5.10;;;;;;;14.65;92.93;101911.13;5034825;28;20055;-66
2023/05/13 00:56:01;;;;;;;8.50;4.40;;;;;;;14.63;93.06;101921.53;5019692;28;20508;-66
2023/05/13 00:58:29;;;;;;;9.02;4.90;;;;;;;14.58;92.36;101905.88;5053631;28;20040;-65
2023/05/13 01:01:31;;;;;;;12.00;5.45;;;;;;;14.59;93.66;101914.91;5054231;28;20045;-66
2023/05/13 01:04:36;;;;;;;10.30;4.75;;;;;;;14.59;92.73;101912.16;5051444;28;20052;-66
2023/05/13 01:07:18;;;;;;;12.68;5.13;;;;;;;14.52;93.10;101911.56;5054471;28;20120;-65
2023/05/13 01:10:04;;;;;;;8.07;5.28;;;;;;;14.54;92.89;101909.41;5035563;28;20048;-65
2023/05/13 01:12:41;;;;;;;16.02;5.88;;;;;;;14.47;92.50;101910.44;5052168;28;20045;-66
2023/05/13 01:15:20;;;;;;;8.88;5.00;;;;;;;14.48;92.49;101909.38;5034195;28;20122;-65
2023/05/13 01:17:54;;;;;;;8.82;4.93;;;;;;;14.52;92.21;101906.06;5053183;28;20070;-65
2023/05/13 01:20:23;;;;;;;7.72;4.88;;;;;;;14.57;91.67;101908.88;5038476;28;20049;-67
2023/05/13 01:22:51;;;;;;;9.88;5.18;;;;;;;14.60;91.05;101911.06;5039437;28;20563;-66
2023/05/13 01:25:19;;;;;;;8.85;5.10;;;;;;;14.56;89.10;101908.06;5040730;28;20087;-66
2023/05/13 01:27:47;;;;;;;8.25;4.68;;;;;;;14.44;89.89;101910.16;5071671;28;20063;-66
2023/05/13 01:30:16;;;;;;;9.00;5.03;;;;;;;14.39;90.31;101908.22;5055488;28;20045;-65
2023/05/13 01:32:45;;;;;;;7.32;5.22;;;;;;;14.43;89.30;101908.50;5055366;28;20405;-66
2023/05/13 01:35:15;;;;;;;7.53;5.30;;;;;;;14.44;88.87;101905.50;5039156;28;20128;-65
2023/05/13 01:37:45;;;;;;;9.50;4.80;;;;;;;14.41;88.49;101906.03;5055603;28;20136;-65
2023/05/13 01:40:13;;;;;;;8.30;4.80;;;;;;;14.35;88.64;101907.09;5037067;28;20076;-66
2023/05/13 01:43:00;;;;;;;6.50;4.65;;;;;;;14.30;87.02;101907.06;5072057;28;20049;-65
2023/05/13 01:45:29;;;;;;;7.68;4.30;;;;;;;14.24;88.30;101916.38;5055801;28;20080;-66
2023/05/13 01:47:58;;;;;;;9.20;4.97;;;;;;;14.22;87.59;101902.94;5055614;28;20045;-66
2023/05/13 01:50:35;;;;;;;8.38;4.70;;;;;;;14.16;87.21;101908.63;5057217;28;20045;-66
2023/05/13 01:53:05;;;;;;;7.95;4.57;;;;;;;14.17;87.77;101911.13;5068757;28;20065;-66
2023/05/13 01:55:32;;;;;;;9.48;4.78;;;;;;;14.20;86.82;101909.78;5055749;28;20048;-66
2023/05/13 01:58:03;;;;;;;13.00;5.10;;;;;;;14.18;87.03;101911.94;5054498;28;20045;-65
2023/05/13 02:00:31;;;;;;;7.70;4.72;;;;;;;14.14;86.81;101914.41;5055004;28;20143;-65
2023/05/13 02:02:59;;;;;;;9.55;5.13;;;;;;;14.12;87.09;101910.25;5039600;28;20048;-65
2023/05/13 02:05:27;;;;;;;8.68;4.90;;;;;;;14.14;86.88;101908.94;5055962;28;20080;-65
2023/05/13 02:07:56;;;;;;;9.82;4.47;;;;;;;14.11;86.35;101916.84;5048324;28;20094;-65
2023/05/13 02:10:23;;;;;;;9.30;4.65;;;;;;;14.09;86.20;101913.53;5049465;28;20049;-66
2023/05/13 02:12:52;;;;;;;10.07;4.75;;;;;;;14.06;86.59;101910.22;5054597;28;20045;-65
2023/05/13 02:15:20;;;;;;;8.77;4.70;;;;;;;14.05;86.83;101914.06;5056454;28;20056;-67
2023/05/13 02:17:47;;;;;;;9.07;4.72;;;;;;;14.06;86.08;101910.22;5055062;28;20037;-66
2023/05/13 02:20:15;;;;;;;7.80;4.40;;;;;;;14.06;86.30;101920.38;5055061;28;20044;-66
2023/05/13 02:22:44;;;;;;;10.55;4.22;;;;;;;14.06;85.77;101914.88;5055119;28;20045;-67
2023/05/13 02:25:12;;;;;;;6.75;4.30;;;;;;;14.02;85.07;101914.59;5055906;28;20053;-67
2023/05/13 02:27:39;;;;;;;10.07;4.90;;;;;;;13.97;84.99;101911.81;5055110;28;20051;-66
2023/05/13 02:30:07;;;;;;;7.45;4.90;;;;;;;13.90;85.01;101916.69;5056256;28;20119;-65
2023/05/13 02:32:35;;;;;;;7.32;4.22;;;;;;;13.83;85.69;101916.94;5054069;28;20144;-65
2023/05/13 02:35:03;;;;;;;9.13;4.82;;;;;;;13.87;85.67;101909.00;5037991;28;20404;-66
2023/05/13 02:37:31;;;;;;;7.57;4.70;;;;;;;13.87;85.26;101916.41;5038146;28;20049;-66
2023/05/13 02:40:02;;;;;;;8.73;4.82;;;;;;;13.92;85.37;101914.50;5053531;28;20041;-66
2023/05/13 02:42:30;;;;;;;8.70;4.55;;;;;;;13.97;85.66;101911.81;5035128;28;20103;-66
2023/05/13 02:44:58;;;;;;;7.90;4.35;;;;;;;14.01;85.61;101912.94;5019004;28;20049;-66
2023/05/13 02:47:29;;;;;;;7.80;4.70;;;;;;;14.02;83.74;101920.09;5051159;28;20049;-66
2023/05/13 02:50:02;;;;;;;11.23;4.80;;;;;;;13.96;85.41;101910.16;5051440;28;20049;-65
2023/05/13 02:52:30;;;;;;;7.53;4.85;;;;;;;13.97;85.57;101914.53;5054008;28;20120;-65
2023/05/13 02:54:58;;;;;;;10.23;5.00;;;;;;;13.99;84.82;101914.28;5054534;28;20072;-66
2023/05/13 02:57:25;;;;;;;8.25;4.50;;;;;;;13.91;85.24;101909.31;5053895;28;20116;-66
2023/05/13 02:59:53;;;;;;;9.68;5.22;;;;;;;13.91;85.45;101912.88;5037206;28;20497;-66
2023/05/13 03:02:21;;;;;;;6.70;4.32;;;;;;;13.87;85.07;101911.75;5037417;28;20049;-65
2023/05/13 03:04:49;;;;;;;8.38;4.32;;;;;;;13.83;85.30;101921.59;5035307;28;20057;-65
2023/05/13 03:07:17;;;;;;;8.63;4.40;;;;;;;13.76;86.20;101915.53;5056100;28;20060;-65
2023/05/13 03:09:44;;;;;;;9.48;4.35;;;;;;;13.69;86.23;101910.25;5037511;28;20051;-65
2023/05/13 03:12:12;;;;;;;9.85;4.72;;;;;;;13.70;86.74;101911.91;5057181;28;20131;-66
2023/05/13 03:14:40;;;;;;;7.90;4.57;;;;;;;13.74;85.40;101901.25;5062139;28;20051;-65
2023/05/13 03:17:08;;;;;;;9.30;4.38;;;;;;;13.64;85.77;101905.56;5059000;28;20103;-65
2023/05/13 03:19:37;;;;;;;9.70;4.45;;;;;;;13.59;86.11;101905.53;5074143;28;20053;-65
2023/05/13 03:22:05;;;;;;;7.32;4.20;;;;;;;13.56;86.35;101911.50;5074393;28;20047;-66
2023/05/13 03:24:33;;;;;;;7.45;4.20;;;;;;;13.56;86.43;101906.03;5079816;28;20048;-66
2023/05/13 03:27:02;;;;;;;8.90;4.55;;;;;;;13.60;86.62;101906.34;5068764;28;20044;-67
2023/05/13 03:29:30;;;;;;;12.68;4.88;;;;;;;13.61;86.64;101914.31;5065270;28;20041;-65
2023/05/13 03:31:58;;;;;;;12.63;4.30;;;;;;;13.61;87.05;101910.72;5039313;28;20048;-65
2023/05/13 03:34:26;;;;;;;7.72;4.50;;;;;;;13.64;87.04;101915.69;5033492;28;20045;-66
2023/05/13 03:36:54;;;;;;;17.17;4.38;;;;;;;13.62;86.20;101915.94;5033515;28;20041;-65
2023/05/13 03:39:25;;;;;;;9.70;4.38;;;;;;;13.60;86.34;101923.59;5017622;28;20045;-66
2023/05/13 03:41:52;;;;;;;10.77;4.38;;;;;;;13.59;87.17;101919.22;5048843;28;20068;-65
2023/05/13 03:44:20;;;;;;;9.32;5.03;;;;;;;13.51;86.28;101916.94;5053264;28;20044;-65
2023/05/13 03:46:48;;;;;;;10.95;4.68;;;;;;;13.47;87.15;101924.06;5053234;28;20499;-66
2023/05/13 03:49:17;;;;;;;8.85;4.60;;;;;;;13.41;86.99;101927.81;5054171;28;20126;-65
2023/05/13 03:51:46;;;;;;;9.77;5.18;;;;;;;13.35;87.47;101926.13;5052853;28;20072;-65
2023/05/13 03:54:14;;;;;;;8.40;4.68;;;;;;;13.30;88.13;101928.78;5051885;28;20072;-65
2023/05/13 03:56:41;;;;;;;13.07;4.93;;;;;;;13.35;89.01;101932.44;5054007;28;20398;-65
2023/05/13 03:59:09;;;;;;;9.00;4.43;;;;;;;13.35;88.35;101921.47;5036053;28;20064;-65
2023/05/13 04:01:37;;;;;;;11.15;5.20;;;;;;;13.28;89.20;101920.03;5031326;28;20064;-66
2023/05/13 04:04:06;;;;;;;10.35;5.05;;;;;;;13.27;90.26;101926.56;5032071;28;20692;-66
2023/05/13 04:06:37;;;;;;;9.65;5.25;;;;;;;13.29;90.00;101922.50;4999101;28;20556;-66
2023/05/13 04:09:05;;;;;;;10.05;5.20;;;;;;;13.34;89.86;101919.00;5033064;28;20076;-66
2023/05/13 04:11:32;;;;;;;9.98;5.10;;;;;;;13.33;89.72;101922.81;5049174;28;20045;-66
2023/05/13 04:14:00;;;;;;;9.30;4.93;;;;;;;13.21;90.80;101925.69;5053897;28;20045;-65
2023/05/13 04:16:28;;;;;;;12.43;4.80;;;;;;;13.25;91.06;101915.03;5052668;28;20386;-66
2023/05/13 04:18:55;;;;;;;13.23;5.30;;;;;;;13.30;90.82;101926.06;5053666;28;20489;-65
2023/05/13 04:21:23;;;;;;;9.80;5.55;;;;;;;13.27;90.81;101935.63;5053206;28;20119;-66
2023/05/13 04:23:51;;;;;;;11.57;5.72;;;;;;;13.16;90.96;101934.66;5062563;28;20072;-66
2023/05/13 04:26:20;;;;;;;8.98;5.07;;;;;;;13.11;91.90;101937.34;5053425;28;20071;-66
2023/05/13 04:28:48;;;;;;;9.55;5.35;;;;;;;13.15;91.80;101938.47;5052259;28;20080;-67
2023/05/13 04:31:16;;;;;;;11.20;5.50;;;;;;;13.21;91.33;101937.44;5052331;28;20072;-67
2023/05/13 04:33:44;;;;;;;7.70;4.90;;;;;;;13.16;92.04;101936.59;5041610;28;20071;-67
2023/05/13 04:36:12;;;;;;;10.82;5.70;;;;;;;13.11;92.37;101945.56;5035131;28;20637;-65
2023/05/13 04:38:42;;;;;;;9.75;5.43;;;;;;;13.11;92.43;101944.75;5019797;28;20083;-66
2023/05/13 04:41:10;;;;;;;10.32;5.60;;;;;;;13.12;92.46;101941.72;5053018;28;20049;-65
2023/05/13 04:43:42;;;;;;;9.75;5.53;;;;;;;13.09;92.51;101936.78;5036166;28;20079;-66
2023/05/13 04:46:10;;;;;;;10.52;5.03;;;;;;;13.11;92.20;101937.34;5053214;28;20037;-65
2023/05/13 04:48:38;;;;;;;11.52;5.97;;;;;;;13.13;92.75;101940.66;5051149;28;20048;-65
2023/05/13 04:51:06;;;;;;;10.48;5.88;;;;;;;13.06;92.92;101941.94;5055423;28;20510;-66
2023/05/13 04:53:35;;;;;;;15.35;6.20;;;;;;;12.93;93.48;101943.16;5073073;28;20501;-65
2023/05/13 04:56:12;;;;;;;13.63;6.65;;;;;;;12.91;93.85;101948.06;5047165;28;20080;-65
2023/05/13 04:58:40;;;;;;;10.93;5.97;;;;;;;12.79;94.98;101946.31;5076570;28;20435;-65
2023/05/13 05:01:08;;;;;;;11.32;6.18;;;;;;;12.87;94.80;101949.66;5075476;28;20052;-66
2023/05/13 05:03:36;;;;;;;11.57;5.95;;;;;;;12.98;94.91;101951.44;5055353;28;20060;-66
2023/05/13 05:06:04;;;;;;;10.65;6.07;;;;;;;13.09;94.15;101955.94;5055622;28;20049;-65
2023/05/13 05:08:32;;;;;;;11.85;5.93;;;;;;;13.15;93.99;101959.53;5022733;28;20045;-66
2023/05/13 05:11:00;;;;;;;16.30;6.90;;;;;;;13.10;92.90;101957.56;5038791;28;20458;-66
2023/05/13 05:13:29;;;;;;;16.13;6.28;;;;;;;13.02;94.35;101955.31;5058013;28;20049;-66
2023/05/13 05:15:57;;;;;;;14.30;7.25;;;;;;;12.98;94.63;101962.38;5029143;28;20127;-66
2023/05/13 05:18:25;;;;;;;9.55;6.22;;;;;;;13.03;94.83;101958.88;5058164;28;20393;-64
2023/05/13 05:20:53;;;;;;;11.68;6.35;;;;;;;13.06;94.43;101964.66;5059236;28;20382;-64
2023/05/13 05:23:21;;;;;;;10.35;6.25;;;;;;;12.95;93.85;101971.09;5061285;28;20371;-66
2023/05/13 05:25:50;;;;;;;11.95;6.75;;;;;;;12.86;96.15;101967.16;5057559;28;20124;-66
2023/05/13 05:28:38;;;;;;;14.35;6.50;;;;;;;12.84;95.85;101969.31;5037970;28;20132;-64
2023/05/13 05:31:08;;;;;;;11.77;6.68;;;;;;;12.90;96.78;101971.03;5038534;28;20135;-65
2023/05/13 05:33:36;;;;;;;13.10;7.32;;;;;;;12.86;96.46;101975.34;5038724;28;20041;-65
2023/05/13 05:36:05;;;;;;;11.88;6.95;;;;;;;12.85;96.85;101976.44;5033493;28;20049;-65
2023/05/13 05:38:34;;;;;;;12.25;7.30;;;;;;;12.83;96.93;101973.13;5022316;28;20072;-66
2023/05/13 05:41:03;;;;;;;10.00;7.07;;;;;;;12.89;97.15;101977.56;5058316;28;20048;-66
2023/05/13 05:43:31;;;;;;;10.18;7.07;;;;;;;12.89;97.73;101972.94;5057856;28;20052;-65
2023/05/13 05:45:58;;;;;;;11.25;6.07;;;;;;;12.93;97.16;101978.72;5041639;28;20053;-65
2023/05/13 05:48:26;;;;;;;13.18;6.95;;;;;;;13.01;97.54;101981.00;5037247;28;20044;-65
2023/05/13 05:50:55;;;;;;;11.57;7.60;;;;;;;13.01;97.28;101983.72;5072877;28;20029;-66
2023/05/13 05:53:30;;;;;;;14.30;7.90;;;;;;;12.91;97.61;101989.09;5039617;28;20389;-66
2023/05/13 05:56:00;;;;;;;15.95;7.45;;;;;;;12.85;99.21;101977.28;5039206;28;20284;-65
2023/05/13 05:58:28;;;;;;;12.55;7.30;;;;;;;12.89;98.85;101983.03;5041460;28;20053;-65
2023/05/13 06:00:57;;;;;;;20.85;8.05;;;;;;;12.93;98.18;101986.94;5028562;28;20049;-65
2023/05/13 06:03:25;;;;;;;14.75;8.52;;;;;;;12.96;99.12;101983.69;5045742;28;20045;-66
2023/05/13 06:05:53;;;;;;;14.27;7.95;;;;;;;13.01;98.81;101981.00;5042467;28;20100;-65
2023/05/13 06:08:28;;;;;;;10.73;7.82;;;;;;;13.02;98.85;101981.84;5037195;28;20549;-66
2023/05/13 06:10:59;;;;;;;12.65;8.57;;;;;;;13.02;98.68;101987.31;5035033;28;20405;-65
2023/05/13 06:13:27;;;;;;;15.32;8.38;;;;;;;12.94;99.73;101983.09;5050178;28;20146;-66
2023/05/13 06:15:55;;;;;;;19.10;8.82;;;;;;;12.96;100.00;101991.88;5038483;28;20053;-64
2023/05/13 06:18:23;;;;;;;18.00;8.68;;;;;;;12.99;100.00;101983.19;5054932;28;20051;-65
2023/05/13 06:20:50;;;;;;;14.02;9.65;;;;;;;12.98;100.00;101987.00;5056247;28;20103;-66
2023/05/13 06:23:18;;;;;;;16.40;9.60;;;;;;;12.99;100.00;101984.00;5053739;28;20454;-64
2023/05/13 06:25:49;;;;;;;12.52;8.77;;;;;;;13.09;100.00;101987.94;5056112;28;20514;-65
2023/05/13 06:28:17;;;;;;;13.25;8.65;;;;;;;13.17;100.00;101991.03;5036414;28;20045;-66
2023/05/13 06:30:45;;;;;;;17.65;8.75;;;;;;;13.21;99.83;101986.72;5035759;28;20176;-66
2023/05/13 06:33:12;;;;;;;12.30;8.45;;;;;;;13.27;99.97;102000.44;5053873;28;20045;-66
2023/05/13 06:35:40;;;;;;;16.23;8.73;;;;;;;13.31;100.00;102004.38;5051395;28;20064;-65
2023/05/13 06:38:13;;;;;;;12.13;7.93;;;;;;;13.38;100.00;102002.25;5045278;28;20069;-65
2023/05/13 06:40:40;;;;;;;14.50;8.25;;;;;;;13.39;100.00;101998.41;5033818;28;20057;-65
2023/05/13 06:43:09;;;;;;;12.60;8.15;;;;;;;13.42;100.00;102001.47;5055695;28;20053;-64
2023/05/13 06:45:38;;;;;;;14.80;7.90;;;;;;;13.43;100.00;102005.03;5038372;28;20413;-65
2023/05/13 06:48:05;;;;;;;13.60;7.43;;;;;;;13.50;99.51;102004.84;5054643;28;20064;-65
2023/05/13 06:50:37;;;;;;;12.32;6.72;;;;;;;13.51;97.25;101999.09;5056026;28;20489;-64
2023/05/13 06:53:04;;;;;;;15.07;8.02;;;;;;;13.55;97.02;102002.97;5054502;28;20053;-64
2023/05/13 06:55:34;;;;;;;12.90;7.18;;;;;;;13.61;96.95;102006.56;5037808;28;20059;-65
2023/05/13 06:58:02;;;;;;;12.73;7.65;;;;;;;13.68;96.90;102000.88;5054464;28;20044;-66
2023/05/13 07:00:30;;;;;;;12.25;7.13;;;;;;;13.67;96.71;102016.50;5054526;28;20437;-65
2023/05/13 07:02:57;;;;;;;14.57;6.72;;;;;;;13.70;96.90;102004.19;5055254;28;20444;-65
2023/05/13 07:05:25;;;;;;;14.02;7.80;;;;;;;13.73;97.36;102009.97;5055084;28;20068;-65
2023/05/13 07:07:53;;;;;;;13.75;6.82;;;;;;;13.77;96.86;102013.03;5055041;28;20044;-66
2023/05/13 07:10:21;;;;;;;13.38;6.60;;;;;;;13.73;95.96;102009.16;5053994;28;20076;-66
2023/05/13 07:12:49;;;;;;;13.77;7.43;;;;;;;13.71;95.41;102012.16;5054401;28;20102;-65
2023/05/13 07:15:17;;;;;;;13.52;7.00;;;;;;;13.72;96.22;102018.47;5056277;28;20561;-65
2023/05/13 07:17:46;;;;;;;13.48;7.25;;;;;;;13.76;96.58;102011.41;5055187;28;20045;-64
2023/05/13 07:20:14;;;;;;;12.90;7.03;;;;;;;13.76;97.03;102014.94;5058191;28;20068;-66
2023/05/13 07:22:41;;;;;;;11.68;6.88;;;;;;;13.79;97.05;102008.94;5065401;28;20551;-66
2023/05/13 07:25:11;;;;;;;14.88;8.13;;;;;;;13.79;96.46;102008.94;5061121;28;20128;-65
2023/05/13 07:27:39;;;;;;;15.02;7.57;;;;;;;13.79;97.32;102008.13;5058601;28;20049;-65
2023/05/13 07:30:08;;;;;;;13.45;7.03;;;;;;;13.80;96.84;102018.81;5063079;28;20064;-66
2023/05/13 07:32:35;;;;;;;13.10;7.68;;;;;;;13.80;97.02;102026.19;5066695;28;20517;-66
2023/05/13 07:35:04;;;;;;;15.10;8.02;;;;;;;13.78;98.07;102017.41;5060198;28;20045;-65
2023/05/13 07:37:32;;;;;;;13.85;7.63;;;;;;;13.82;97.62;102010.34;5056486;28;20048;-66
2023/05/13 07:39:59;;;;;;;12.45;7.78;;;;;;;13.85;97.58;102009.81;5069815;28;20098;-66
2023/05/13 07:42:30;;;;;;;13.27;8.02;;;;;;;13.84;97.63;102008.97;5054357;28;20071;-66
2023/05/13 07:45:01;;;;;;;16.25;7.97;;;;;;;13.87;98.99;102017.78;5048723;28;20120;-66
2023/05/13 07:47:30;;;;;;;13.95;8.30;;;;;;;13.89;98.52;102013.69;5037242;28;20420;-66
2023/05/13 07:49:58;;;;;;;12.85;8.32;;;;;;;13.97;98.59;102015.94;5051282;28;20048;-67
2023/05/13 07:52:26;;;;;;;11.07;7.53;;;;;;;14.03;98.60;102009.41;5054157;28;20227;-66
2023/05/13 07:54:54;;;;;;;15.80;7.95;;;;;;;14.09;98.26;102007.53;5035363;28;20103;-65
2023/05/13 07:57:22;;;;;;;16.27;7.63;;;;;;;14.12;98.59;102017.13;5050064;28;20072;-65
2023/05/13 07:59:51;;;;;;;15.68;8.40;;;;;;;14.15;98.83;102011.97;5054112;28;20469;-65
2023/05/13 08:02:25;;;;;;;14.00;8.00;;;;;;;14.17;98.58;102014.47;5052783;28;20061;-66
2023/05/13 08:04:53;;;;;;;12.18;7.82;;;;;;;14.20;98.98;102014.75;5053289;28;20512;-66
2023/05/13 08:07:21;;;;;;;17.17;7.82;;;;;;;14.25;100.00;102019.44;5052999;28;20071;-65
2023/05/13 08:09:52;;;;;;;14.10;7.97;;;;;;;14.33;99.25;102012.63;5054064;28;20489;-66
2023/05/13 08:12:19;;;;;;;12.00;8.10;;;;;;;14.41;99.56;102015.72;5052975;28;20412;-65
2023/05/13 08:14:47;;;;;;;14.13;8.23;;;;;;;14.48;97.23;102010.00;5033591;28;20049;-65
2023/05/13 08:17:18;;;;;;;12.90;8.48;;;;;;;14.54;96.90;102013.63;5038142;28;20448;-65
2023/05/13 08:19:50;;;;;;;16.15;8.30;;;;;;;14.67;97.20;102007.66;5053922;28;20492;-65
2023/05/13 08:22:18;;;;;;;24.92;9.23;;;;;;;14.75;98.49;102015.41;5056429;28;20071;-66
2023/05/13 08:24:46;;;;;;;19.27;8.48;;;;;;;14.86;94.57;102013.50;5053116;28;20140;-65
2023/05/13 08:27:13;;;;;;;16.58;8.02;;;;;;;14.98;95.91;102007.78;5053430;28;20037;-65
2023/05/13 08:29:41;;;;;;;11.88;7.70;;;;;;;15.05;95.93;102013.88;5050658;28;20045;-65
2023/05/13 08:32:09;;;;;;;11.43;7.47;;;;;;;15.08;96.05;102013.31;5053102;28;20091;-65
2023/05/13 08:34:37;;;;;;;15.57;9.05;;;;;;;15.10;95.83;102014.72;5052107;28;20572;-65
2023/05/13 08:37:05;;;;;;;16.30;9.05;;;;;;;15.13;96.46;102021.59;5053611;28;20041;-66
2023/05/13 08:39:33;;;;;;;12.80;8.98;;;;;;;15.18;97.88;102012.56;5051338;28;20045;-66
2023/05/13 08:42:03;;;;;;;12.27;7.65;;;;;;;15.24;97.39;102005.97;5052046;28;20037;-65
2023/05/13 08:44:32;;;;;;;13.77;8.50;;;;;;;15.27;94.61;102000.78;5052105;28;20417;-66
2023/05/13 08:47:23;;;;;;;17.02;8.40;;;;;;;15.32;96.21;102010.91;5035710;28;20045;-66
2023/05/13 08:49:53;;;;;;;14.07;8.05;;;;;;;15.42;94.67;102010.97;5052590;28;20055;-65
2023/05/13 08:52:22;;;;;;;16.23;8.15;;;;;;;15.50;94.51;102015.09;5053084;28;20041;-65
2023/05/13 08:54:50;;;;;;;15.02;7.90;;;;;;;15.60;93.56;102006.03;5053304;28;20057;-66
2023/05/13 08:57:17;;;;;;;13.43;8.40;;;;;;;15.60;93.84;102003.28;5050906;28;20068;-66
2023/05/13 08:59:46;;;;;;;13.57;8.93;;;;;;;15.59;94.85;102007.16;5051717;28;20060;-65
2023/05/13 09:02:13;;;;;;;14.05;8.57;;;;;;;15.59;93.20;102007.16;5051848;28;20098;-64
2023/05/13 09:04:43;;;;;;;14.45;7.93;;;;;;;15.63;94.12;102009.06;5054185;28;20049;-65
2023/05/13 09:07:11;;;;;;;11.68;8.80;;;;;;;15.67;92.27;102004.66;5050623;28;20056;-65
2023/05/13 09:09:38;;;;;;;17.75;8.50;;;;;;;15.74;92.41;101999.75;5050917;28;20136;-65
2023/05/13 09:12:09;;;;;;;12.68;7.90;;;;;;;15.80;93.05;102002.50;5035751;28;20049;-65
2023/05/13 09:14:41;;;;;;;11.82;8.15;;;;;;;15.84;93.01;102006.38;5051583;28;20043;-65
2023/05/13 09:17:08;;;;;;;17.08;8.55;;;;;;;15.92;92.50;101994.81;5039923;28;20052;-66
2023/05/13 09:19:36;;;;;;;15.38;8.80;;;;;;;16.00;91.09;101997.03;5052881;28;20041;-65
2023/05/13 09:22:04;;;;;;;12.75;7.90;;;;;;;16.02;89.41;101997.56;5052799;28;20048;-66
2023/05/13 09:24:35;;;;;;;14.10;8.02;;;;;;;16.12;90.03;102005.81;5052956;28;20448;-66
2023/05/13 09:27:02;;;;;;;15.07;8.18;;;;;;;16.16;90.26;102001.41;5051401;28;20416;-67
2023/05/13 09:29:30;;;;;;;13.52;8.07;;;;;;;16.21;89.67;101986.00;5053810;28;20053;-66
2023/05/13 09:32:00;;;;;;;11.43;7.57;;;;;;;16.33;87.45;101995.63;5052961;28;20076;-66
2023/05/13 09:34:33;;;;;;;16.20;7.68;;;;;;;16.45;85.67;101992.56;5053457;28;20505;-66
2023/05/13 09:37:05;;;;;;;13.48;7.47;;;;;;;16.56;86.30;101983.16;5049525;28;20049;-66
2023/05/13 09:39:40;;;;;;;12.93;7.82;;;;;;;16.72;86.65;101983.13;5051221;28;20045;-67
2023/05/13 09:42:15;;;;;;;12.77;7.80;;;;;;;16.75;85.60;101980.63;5054848;28;20421;-66
2023/05/13 09:44:47;;;;;;;12.10;7.72;;;;;;;16.74;88.32;101983.63;5056221;28;20053;-65
2023/05/13 09:47:16;;;;;;;11.20;7.72;;;;;;;16.83;85.46;101987.50;5055556;28;20132;-65
2023/05/13 09:49:45;;;;;;;15.70;7.50;;;;;;;16.92;83.90;101980.31;5054634;28;20386;-66
2023/05/13 09:52:16;;;;;;;16.92;7.72;;;;;;;17.08;81.50;101978.31;5056433;28;20497;-66
2023/05/13 09:54:44;;;;;;;12.48;7.22;;;;;;;17.09;79.65;101974.44;5069410;28;20497;-66
2023/05/13 09:57:12;;;;;;;13.90;6.63;;;;;;;17.13;77.82;101985.72;5075418;28;20052;-67
2023/05/13 09:59:41;;;;;;;16.17;6.55;;;;;;;17.17;77.62;101975.75;5048716;28;20049;-66
2023/05/13 10:02:16;;;;;;;10.90;6.32;;;;;;;17.19;78.88;101976.31;5055564;28;20059;-65
2023/05/13 10:04:51;;;;;;;16.50;6.18;;;;;;;17.26;77.68;101976.81;5060327;28;20385;-66
2023/05/13 10:07:24;;;;;;;17.73;6.47;;;;;;;17.37;75.11;101970.13;5076459;28;20060;-67
2023/05/13 10:09:56;;;;;;;10.57;5.72;;;;;;;17.41;76.23;101973.97;5069002;28;20401;-67
2023/05/13 10:12:25;;;;;;;10.75;6.22;;;;;;;17.46;76.17;101973.94;5056005;28;20063;-67
2023/05/13 10:14:54;;;;;;;12.55;6.15;;;;;;;17.59;72.46;101966.94;5054851;28;20044;-67
2023/05/13 10:17:23;;;;;;;9.05;5.20;;;;;;;17.73;69.41;101958.84;5056417;28;20052;-66
2023/05/13 10:19:52;;;;;;;14.93;5.70;;;;;;;17.86;68.09;101971.97;5054827;28;20053;-67
2023/05/13 10:22:31;;;;;;;11.73;5.65;;;;;;;17.91;67.96;101962.03;5053683;28;20099;-66
2023/05/13 10:24:59;;;;;;;12.68;5.60;;;;;;;17.83;70.14;101961.53;5038464;28;20207;-67
2023/05/13 10:27:29;;;;;;;14.10;6.43;;;;;;;17.88;70.54;101963.44;5054929;28;20079;-67
2023/05/13 10:29:58;;;;;;;13.65;5.57;;;;;;;17.97;69.99;101961.69;5055922;28;20044;-68
2023/05/13 10:32:31;;;;;;;11.10;5.80;;;;;;;18.06;69.27;101959.97;5053062;28;20461;-67
2023/05/13 10:35:11;;;;;;;11.75;5.07;;;;;;;17.99;64.45;101947.59;5055769;28;20053;-66
2023/05/13 10:38:14;;;;;;;11.60;4.80;;;;;;;18.29;61.28;101947.28;5073327;28;20119;-65
2023/05/13 10:41:19;;;;;;;9.52;4.60;;;;;;;18.37;60.50;101956.03;5056791;28;20045;-67
2023/05/13 10:43:57;;;;;;;12.18;4.70;;;;;;;18.46;61.82;101944.06;5046110;28;20098;-66
2023/05/13 10:46:27;;;;;;;8.55;4.20;;;;;;;18.49;57.02;101950.94;5054595;28;20045;-67
2023/05/13 10:48:57;;;;;;;8.43;4.70;;;;;;;18.56;57.81;101948.63;5055442;28;20110;-68
2023/05/13 10:51:28;;;;;;;12.10;4.50;;;;;;;18.58;58.91;101942.84;5053268;28;20076;-68
2023/05/13 10:53:57;;;;;;;9.13;4.35;;;;;;;18.63;56.11;101951.88;5042539;28;20041;-68
2023/05/13 10:56:27;;;;;;;14.80;4.55;;;;;;;18.76;51.43;101943.97;5055546;28;20079;-68
2023/05/13 10:59:02;;;;;;;9.63;4.32;;;;;;;18.74;51.51;101936.00;5037976;28;20064;-69
2023/05/13 11:01:46;;;;;;;7.15;3.80;;;;;;;18.78;50.62;101936.25;5054349;28;20064;-67
2023/05/13 11:04:15;;;;;;;10.25;4.30;;;;;;;18.78;48.83;101948.13;5045383;28;20059;-67
2023/05/13 11:06:47;;;;;;;9.88;3.80;;;;;;;18.87;46.89;101942.75;5058301;28;20493;-67
2023/05/13 11:09:21;;;;;;;12.90;4.03;;;;;;;18.84;48.64;101935.09;5057192;28;20056;-66
2023/05/13 11:11:53;;;;;;;9.55;4.03;;;;;;;18.97;47.73;101930.75;5056049;28;20128;-69
2023/05/13 11:14:23;;;;;;;11.55;4.40;;;;;;;19.04;46.74;101937.53;5050249;28;20489;-68
2023/05/13 11:17:07;;;;;;;11.02;3.85;;;;;;;19.14;46.41;101936.56;5059259;28;20121;-67
2023/05/13 11:19:46;;;;;;;11.38;4.00;;;;;;;19.09;46.42;101934.72;5059565;28;20552;-68
2023/05/13 11:22:19;;;;;;;7.63;3.80;;;;;;;19.11;46.20;101924.19;5083306;28;20037;-68
2023/05/13 11:25:09;;;;;;;9.38;3.85;;;;;;;19.08;47.29;101918.44;5078589;28;20053;-64
2023/05/13 11:27:41;;;;;;;9.50;3.63;;;;;;;19.18;46.00;101917.47;5073162;28;20041;-65
2023/05/13 11:30:22;;;;;;;9.90;4.07;;;;;;;19.11;47.32;101918.66;5070778;28;20105;-67
2023/05/13 11:32:50;;;;;;;10.45;3.67;;;;;;;19.18;48.45;101923.00;5074497;28;20079;-64